createdAt,value
2022-09-29T00:01:08.464Z,4.10
2022-09-29T00:03:37.860Z,4.10
2022-09-29T00:06:15.051Z,4.20
2022-09-29T00:08:42.808Z,4.20
2022-09-29T00:11:17.899Z,4.20
2022-09-29T00:13:47.543Z,4.20
2022-09-29T00:16:15.247Z,4.10
2022-09-29T00:18:42.167Z,4.00
2022-09-29T00:21:19.736Z,3.90
2022-09-29T00:23:48.900Z,3.80
2022-09-29T00:26:22.405Z,3.80
2022-09-29T00:28:57.320Z,3.80
2022-09-29T00:31:33.747Z,3.70
2022-09-29T00:34:00.793Z,3.70
2022-09-29T00:36:30.866Z,3.70
2022-09-29T00:38:59.545Z,3.80
2022-09-29T00:41:33.701Z,3.80
2022-09-29T00:44:12.508Z,3.80
2022-09-29T00:47:02.652Z,3.80
2022-09-29T00:50:30.718Z,3.80
2022-09-29T00:53:02.750Z,3.70
2022-09-29T00:55:41.153Z,3.60
2022-09-29T00:58:30.680Z,3.60
2022-09-29T01:00:58.095Z,3.60
2022-09-29T01:03:33.726Z,3.60
2022-09-29T01:06:13.626Z,3.60
2022-09-29T01:09:09.289Z,3.60
2022-09-29T01:11:37.173Z,3.70
2022-09-29T01:14:09.841Z,3.80
2022-09-29T01:16:41.384Z,3.90
2022-09-29T01:19:35.609Z,4.00
2022-09-29T01:22:53.643Z,4.10
2022-09-29T01:26:02.802Z,4.20
2022-09-29T01:29:12.621Z,4.30
2022-09-29T01:31:59.161Z,4.40
2022-09-29T01:34:51.889Z,4.40
2022-09-29T01:38:00.630Z,4.50
2022-09-29T01:41:19.996Z,4.40
2022-09-29T01:44:08.622Z,4.50
2022-09-29T01:46:55.515Z,4.50
2022-09-29T01:49:31.401Z,4.50
2022-09-29T01:52:25.087Z,4.50
2022-09-29T01:55:17.021Z,4.50
2022-09-29T01:58:02.150Z,4.40
2022-09-29T02:00:40.633Z,4.30
2022-09-29T02:04:09.046Z,4.20
2022-09-29T02:06:59.557Z,4.10
2022-09-29T02:09:38.998Z,4.10
2022-09-29T02:12:08.274Z,4.30
2022-09-29T02:14:47.498Z,4.40
2022-09-29T02:17:35.986Z,4.30
2022-09-29T02:20:04.846Z,4.30
2022-09-29T02:22:32.498Z,4.40
2022-09-29T02:25:01.174Z,4.50
2022-09-29T02:27:29.413Z,4.50
2022-09-29T02:29:59.152Z,4.50
2022-09-29T02:32:29.248Z,4.50
2022-09-29T02:34:57.450Z,4.60
2022-09-29T02:37:48.561Z,4.60
2022-09-29T02:40:52.465Z,4.70
2022-09-29T02:44:19.702Z,4.70
2022-09-29T02:47:14.751Z,4.60
2022-09-29T02:50:16.175Z,4.70
2022-09-29T02:53:33.444Z,4.60
2022-09-29T02:56:38.715Z,4.60
2022-09-29T02:59:19.999Z,4.60
2022-09-29T03:01:54.359Z,4.50
2022-09-29T03:04:26.467Z,4.50
2022-09-29T03:06:54.723Z,4.50
2022-09-29T03:09:22.039Z,4.60
2022-09-29T03:11:48.956Z,4.80
2022-09-29T03:14:15.992Z,4.90
2022-09-29T03:16:44.061Z,5.00
2022-09-29T03:19:11.200Z,5.10
2022-09-29T03:21:38.101Z,5.10
2022-09-29T03:24:06.124Z,5.10
2022-09-29T03:26:33.074Z,5.10
2022-09-29T03:29:00.220Z,5.10
2022-09-29T03:31:27.169Z,5.10
2022-09-29T03:33:54.204Z,5.20
2022-09-29T03:36:21.300Z,5.20
2022-09-29T03:38:48.212Z,5.20
2022-09-29T03:41:15.678Z,5.20
2022-09-29T03:43:42.616Z,5.20
2022-09-29T03:46:09.659Z,5.20
2022-09-29T03:48:36.684Z,5.20
2022-09-29T03:51:03.926Z,5.20
2022-09-29T03:53:31.249Z,5.20
2022-09-29T03:55:58.205Z,5.20
2022-09-29T03:58:25.539Z,5.20
2022-09-29T04:00:52.547Z,5.20
2022-09-29T04:03:20.896Z,5.20
2022-09-29T04:05:51.226Z,5.20
2022-09-29T04:08:18.163Z,5.20
2022-09-29T04:10:47.835Z,5.10
2022-09-29T04:13:19.909Z,5.10
2022-09-29T04:15:48.828Z,5.10
2022-09-29T04:18:15.861Z,5.00
2022-09-29T04:20:42.969Z,5.00
2022-09-29T04:23:09.884Z,4.90
2022-09-29T04:25:36.811Z,4.90
2022-09-29T04:28:04.098Z,4.80
2022-09-29T04:30:30.950Z,4.80
2022-09-29T04:32:57.838Z,4.70
2022-09-29T04:35:24.691Z,4.70
2022-09-29T04:37:57.372Z,4.70
2022-09-29T04:40:26.075Z,4.70
2022-09-29T04:42:53.023Z,4.60
2022-09-29T04:45:19.961Z,4.60
2022-09-29T04:47:46.931Z,4.50
2022-09-29T04:50:14.205Z,4.40
2022-09-29T04:52:43.802Z,4.40
2022-09-29T04:55:12.070Z,4.30
2022-09-29T04:57:43.146Z,4.30
2022-09-29T05:00:12.086Z,4.20
2022-09-29T05:02:39.178Z,4.10
2022-09-29T05:05:07.655Z,3.90
2022-09-29T05:07:42.358Z,3.80
2022-09-29T05:10:10.282Z,3.80
2022-09-29T05:12:37.605Z,3.70
2022-09-29T05:15:06.165Z,3.60
2022-09-29T05:17:34.008Z,3.60
2022-09-29T05:20:01.112Z,3.60
2022-09-29T05:22:27.999Z,3.60
2022-09-29T05:24:54.930Z,3.60
2022-09-29T05:27:22.279Z,3.60
2022-09-29T05:29:49.966Z,3.70
2022-09-29T05:32:17.030Z,3.70
2022-09-29T05:34:44.006Z,3.80
2022-09-29T05:37:11.648Z,3.90
2022-09-29T05:39:39.620Z,4.10
2022-09-29T05:42:11.795Z,4.20
2022-09-29T05:44:38.671Z,4.30
2022-09-29T05:47:05.616Z,4.40
2022-09-29T05:49:33.063Z,4.40
2022-09-29T05:52:00.846Z,4.40
2022-09-29T05:54:27.787Z,4.50
2022-09-29T05:56:56.034Z,4.60
2022-09-29T05:59:23.147Z,4.70
2022-09-29T06:01:50.073Z,4.70
2022-09-29T06:04:17.439Z,4.80
2022-09-29T06:06:44.665Z,4.90
2022-09-29T06:09:11.692Z,5.00
2022-09-29T06:11:38.568Z,5.10
2022-09-29T06:14:05.591Z,5.20
2022-09-29T06:16:34.266Z,5.40
2022-09-29T06:19:02.902Z,5.50
2022-09-29T06:21:31.907Z,5.60
2022-09-29T06:23:59.197Z,5.60
2022-09-29T06:26:28.207Z,5.70
2022-09-29T06:28:56.915Z,5.80
2022-09-29T06:31:29.269Z,5.80
2022-09-29T06:34:05.228Z,5.70
2022-09-29T06:36:58.575Z,5.70
2022-09-29T06:39:26.027Z,5.80
2022-09-29T06:41:55.972Z,5.90
2022-09-29T06:44:27.704Z,5.90
2022-09-29T06:46:55.193Z,6.00
2022-09-29T06:49:23.996Z,6.20
2022-09-29T06:51:52.012Z,6.30
2022-09-29T06:54:26.347Z,6.40
2022-09-29T06:56:55.412Z,6.50
2022-09-29T06:59:23.030Z,6.40
2022-09-29T07:01:50.814Z,6.50
2022-09-29T07:04:21.444Z,6.50
2022-09-29T07:06:49.700Z,6.60
2022-09-29T07:09:18.001Z,6.80
2022-09-29T07:11:50.891Z,7.10
2022-09-29T07:14:22.777Z,7.70
2022-09-29T07:16:51.136Z,8.20
2022-09-29T07:19:19.829Z,8.80
2022-09-29T07:21:48.479Z,9.20
2022-09-29T07:24:16.388Z,9.20
2022-09-29T07:26:43.719Z,9.20
2022-09-29T07:29:15.266Z,9.10
2022-09-29T07:31:51.678Z,9.00
2022-09-29T07:34:21.589Z,9.10
2022-09-29T07:36:49.533Z,9.10
2022-09-29T07:39:17.184Z,9.10
2022-09-29T07:41:44.035Z,9.10
2022-09-29T07:44:11.356Z,9.20
2022-09-29T07:46:38.287Z,9.30
2022-09-29T07:49:05.390Z,9.50
2022-09-29T07:51:32.448Z,9.80
2022-09-29T07:54:04.933Z,10.10
2022-09-29T07:56:32.972Z,10.50
2022-09-29T07:59:00.461Z,11.10
2022-09-29T08:03:55.823Z,12.50
2022-09-29T08:06:26.523Z,13.70
2022-09-29T08:09:03.638Z,13.40
2022-09-29T08:11:36.945Z,13.50
2022-09-29T08:14:04.193Z,13.80
2022-09-29T08:16:31.453Z,14.10
2022-09-29T08:19:00.152Z,14.20
2022-09-29T08:21:29.712Z,13.80
2022-09-29T08:23:56.689Z,13.30
2022-09-29T08:26:37.729Z,13.00
2022-09-29T08:29:09.093Z,12.90
2022-09-29T08:31:40.330Z,13.10
2022-09-29T08:34:07.755Z,13.60
2022-09-29T08:36:35.622Z,14.80
2022-09-29T08:39:03.902Z,15.90
2022-09-29T08:41:43.398Z,17.10
2022-09-29T08:44:39.462Z,18.10
2022-09-29T08:47:42.218Z,18.30
2022-09-29T08:50:52.591Z,17.70
2022-09-29T08:53:28.788Z,19.50
2022-09-29T08:56:05.510Z,20.10
2022-09-29T08:58:34.188Z,19.70
2022-09-29T09:01:38.733Z,18.10
2022-09-29T09:04:39.211Z,16.80
2022-09-29T09:07:32.187Z,15.20
2022-09-29T09:10:47.377Z,14.20
2022-09-29T09:13:57.170Z,13.30
2022-09-29T09:17:23.619Z,13.10
2022-09-29T09:20:20.503Z,13.50
2022-09-29T09:23:14.948Z,14.50
2022-09-29T09:25:59.571Z,14.80
2022-09-29T09:28:55.523Z,14.80
2022-09-29T09:31:51.163Z,14.40
2022-09-29T09:34:51.864Z,14.10
2022-09-29T09:37:32.255Z,13.70
2022-09-29T09:40:21.100Z,13.20
2022-09-29T09:43:05.144Z,13.30
2022-09-29T09:45:49.889Z,13.50
2022-09-29T09:48:48.325Z,15.00
2022-09-29T09:52:04.927Z,17.40
2022-09-29T09:54:45.232Z,18.40
2022-09-29T09:58:00.217Z,17.90
2022-09-29T10:00:47.289Z,16.60
2022-09-29T10:03:16.422Z,15.90
2022-09-29T10:05:48.605Z,16.40
2022-09-29T10:08:39.730Z,16.10
2022-09-29T10:11:31.786Z,15.60
2022-09-29T10:14:22.525Z,15.90
2022-09-29T10:17:05.128Z,15.60
2022-09-29T10:20:09.278Z,15.10
2022-09-29T10:22:36.524Z,15.50
2022-09-29T10:25:12.420Z,16.70
2022-09-29T10:27:50.706Z,17.70
2022-09-29T10:30:33.416Z,17.80
2022-09-29T10:33:09.146Z,17.00
2022-09-29T10:35:43.432Z,16.30
2022-09-29T10:38:27.112Z,16.20
2022-09-29T10:41:04.329Z,16.00
2022-09-29T10:43:44.265Z,15.80
2022-09-29T10:46:50.687Z,15.80
2022-09-29T10:49:28.946Z,15.60
2022-09-29T10:52:16.898Z,15.40
2022-09-29T10:55:00.588Z,15.50
2022-09-29T10:57:33.763Z,15.60
2022-09-29T11:00:02.509Z,15.50
2022-09-29T11:02:35.100Z,15.80
2022-09-29T11:05:21.598Z,15.90
2022-09-29T11:07:52.562Z,15.70
2022-09-29T11:10:39.938Z,15.60
2022-09-29T11:13:27.058Z,15.30
2022-09-29T11:16:18.104Z,14.90
2022-09-29T11:18:58.115Z,14.70
2022-09-29T11:21:43.077Z,14.70
2022-09-29T11:24:42.329Z,14.60
2022-09-29T11:27:58.410Z,14.50
2022-09-29T11:30:50.924Z,14.60
2022-09-29T11:34:03.977Z,14.50
2022-09-29T11:37:09.366Z,14.40
2022-09-29T11:39:45.370Z,14.30
2022-09-29T11:43:06.544Z,14.20
2022-09-29T11:45:53.272Z,14.20
2022-09-29T11:49:04.596Z,14.20
2022-09-29T11:52:35.842Z,14.20
2022-09-29T11:55:54.468Z,14.00
2022-09-29T11:58:55.900Z,13.80
2022-09-29T12:02:25.068Z,13.60
2022-09-29T12:05:19.702Z,13.50
2022-09-29T12:08:11.815Z,13.50
2022-09-29T12:11:37.678Z,13.50
2022-09-29T12:14:19.286Z,13.60
2022-09-29T12:17:02.130Z,13.70
2022-09-29T12:19:39.533Z,13.50
2022-09-29T12:22:17.123Z,13.40
2022-09-29T12:24:55.199Z,13.30
2022-09-29T12:27:34.667Z,13.70
2022-09-29T12:30:51.531Z,14.10
2022-09-29T12:33:34.923Z,14.40
2022-09-29T12:36:45.834Z,15.30
2022-09-29T12:39:47.825Z,16.00
2022-09-29T12:42:38.768Z,16.80
2022-09-29T12:46:20.797Z,16.90
2022-09-29T12:49:13.663Z,17.10
2022-09-29T12:51:49.523Z,17.00
2022-09-29T12:54:29.844Z,16.90
2022-09-29T12:57:39.977Z,17.10
2022-09-29T13:00:18.802Z,17.50
2022-09-29T13:03:36.557Z,17.50
2022-09-29T13:06:37.381Z,17.60
2022-09-29T13:10:12.872Z,17.70
2022-09-29T13:13:09.496Z,17.60
2022-09-29T13:16:10.204Z,18.10
2022-09-29T13:19:56.164Z,17.90
2022-09-29T13:23:19.824Z,17.70
2022-09-29T13:26:21.356Z,17.30
2022-09-29T13:28:58.333Z,17.20
2022-09-29T13:31:37.363Z,17.10
2022-09-29T13:34:05.832Z,16.50
2022-09-29T13:36:42.381Z,16.00
2022-09-29T13:39:27.712Z,16.00
2022-09-29T13:41:55.944Z,16.10
2022-09-29T13:44:28.892Z,16.10
2022-09-29T13:46:57.060Z,15.80
2022-09-29T13:49:30.337Z,15.50
2022-09-29T13:52:29.933Z,15.30
2022-09-29T13:55:48.913Z,14.90
2022-09-29T13:58:42.983Z,14.60
2022-09-29T14:01:12.789Z,14.10
2022-09-29T14:03:45.446Z,13.70
2022-09-29T14:06:47.056Z,13.40
2022-09-29T14:09:24.345Z,13.10
2022-09-29T14:11:57.046Z,12.90
2022-09-29T14:14:38.029Z,12.90
2022-09-29T14:17:39.221Z,12.80
2022-09-29T14:20:31.173Z,12.70
2022-09-29T14:23:08.265Z,12.60
2022-09-29T14:25:40.765Z,12.50
2022-09-29T14:28:19.468Z,12.40
2022-09-29T14:30:52.746Z,12.40
2022-09-29T14:33:36.193Z,12.40
2022-09-29T14:36:20.562Z,12.60
2022-09-29T14:39:21.679Z,12.60
2022-09-29T14:41:48.843Z,12.50
2022-09-29T14:44:27.304Z,12.40
2022-09-29T14:51:28.494Z,12.10
2022-09-29T14:55:05.522Z,12.10
2022-09-29T14:57:52.962Z,12.00
2022-09-29T15:00:40.578Z,12.10
2022-09-29T15:03:26.726Z,12.00
2022-09-29T15:06:17.806Z,11.90
2022-09-29T15:08:59.796Z,11.90
2022-09-29T15:11:43.158Z,11.80
2022-09-29T15:14:29.241Z,11.80
2022-09-29T15:17:18.659Z,11.80
2022-09-29T15:20:18.719Z,11.70
2022-09-29T15:23:11.714Z,11.70
2022-09-29T15:25:44.714Z,11.60
2022-09-29T15:28:28.111Z,11.50
2022-09-29T15:31:08.887Z,11.50
2022-09-29T15:33:43.372Z,11.50
2022-09-29T15:36:32.132Z,11.50
2022-09-29T15:39:33.515Z,11.50
2022-09-29T15:42:15.284Z,11.40
2022-09-29T15:45:00.867Z,11.40
2022-09-29T15:47:41.367Z,11.40
2022-09-29T15:50:27.610Z,11.30
2022-09-29T15:52:55.145Z,11.30
2022-09-29T15:55:25.028Z,11.30
2022-09-29T15:57:58.673Z,11.30
2022-09-29T16:00:26.712Z,11.20
2022-09-29T16:03:37.139Z,11.10
2022-09-29T16:06:29.483Z,11.00
2022-09-29T16:09:06.199Z,10.90
2022-09-29T16:11:39.836Z,10.80
2022-09-29T16:14:27.021Z,10.90
2022-09-29T16:16:56.264Z,10.90
2022-09-29T16:19:31.738Z,10.90
2022-09-29T16:22:06.469Z,10.80
2022-09-29T16:24:52.445Z,10.70
2022-09-29T16:27:54.019Z,10.40
2022-09-29T16:30:27.505Z,10.30
2022-09-29T16:33:13.912Z,10.20
2022-09-29T16:36:01.516Z,10.00
2022-09-29T16:38:35.734Z,9.90
2022-09-29T16:41:37.636Z,9.80
2022-09-29T16:44:10.454Z,9.80
2022-09-29T16:47:01.085Z,9.70
2022-09-29T16:49:36.916Z,9.70
2022-09-29T16:52:29.356Z,9.60
2022-09-29T16:55:27.630Z,9.60
2022-09-29T16:58:14.914Z,9.50
2022-09-29T17:00:44.732Z,9.40
2022-09-29T17:03:12.133Z,9.40
2022-09-29T17:05:47.772Z,9.40
2022-09-29T17:08:25.813Z,9.40
2022-09-29T17:10:56.565Z,9.30
2022-09-29T17:13:24.752Z,9.30
2022-09-29T17:15:53.723Z,9.30
2022-09-29T17:18:24.931Z,9.20
2022-09-29T17:20:51.773Z,9.20
2022-09-29T17:23:18.863Z,9.20
2022-09-29T17:25:49.435Z,9.20
2022-09-29T17:28:24.665Z,9.20
2022-09-29T17:30:55.374Z,9.20
2022-09-29T17:33:22.605Z,9.20
2022-09-29T17:35:55.700Z,9.30
2022-09-29T17:38:23.790Z,9.20
2022-09-29T17:41:02.617Z,9.20
2022-09-29T17:43:31.253Z,9.20
2022-09-29T17:46:01.171Z,9.20
2022-09-29T17:48:30.456Z,9.10
2022-09-29T17:50:59.039Z,9.00
2022-09-29T17:53:27.410Z,8.90
2022-09-29T17:55:57.770Z,8.90
2022-09-29T17:58:25.269Z,9.00
2022-09-29T18:00:57.258Z,9.00
2022-09-29T18:03:25.189Z,8.90
2022-09-29T18:05:56.571Z,9.00
2022-09-29T18:08:29.142Z,9.00
2022-09-29T18:10:59.714Z,9.00
2022-09-29T18:13:31.325Z,9.00
2022-09-29T18:16:02.025Z,9.00
2022-09-29T18:18:29.730Z,8.90
2022-09-29T18:20:56.723Z,8.80
2022-09-29T18:23:23.964Z,8.80
2022-09-29T18:25:52.704Z,8.80
2022-09-29T18:28:20.426Z,8.80
2022-09-29T18:30:57.761Z,8.80
2022-09-29T18:33:26.086Z,8.60
2022-09-29T18:35:54.870Z,8.60
2022-09-29T18:38:22.646Z,8.50
2022-09-29T18:40:54.272Z,8.50
2022-09-29T18:43:25.007Z,8.40
2022-09-29T18:45:55.239Z,8.30
2022-09-29T18:48:22.704Z,8.40
2022-09-29T18:50:56.535Z,8.40
2022-09-29T18:53:23.896Z,8.30
2022-09-29T18:56:01.660Z,8.30
2022-09-29T18:58:28.979Z,8.20
2022-09-29T19:00:57.236Z,8.10
2022-09-29T19:03:27.681Z,8.10
2022-09-29T19:05:56.514Z,8.10
2022-09-29T19:08:23.901Z,8.10
2022-09-29T19:11:00.490Z,8.00
2022-09-29T19:13:30.191Z,8.00
2022-09-29T19:15:59.289Z,7.90
2022-09-29T19:18:27.032Z,7.80
2022-09-29T19:20:58.291Z,7.80
2022-09-29T19:23:29.088Z,7.80
2022-09-29T19:25:58.303Z,7.80
2022-09-29T19:28:27.118Z,7.70
2022-09-29T19:30:55.783Z,7.60
2022-09-29T19:33:23.243Z,7.50
2022-09-29T19:35:57.221Z,7.40
2022-09-29T19:38:24.406Z,7.40
2022-09-29T19:40:51.674Z,7.20
2022-09-29T19:43:21.308Z,7.20
2022-09-29T19:45:49.544Z,7.20
2022-09-29T19:48:21.597Z,7.10
2022-09-29T19:51:16.231Z,7.10
2022-09-29T19:53:45.870Z,7.00
2022-09-29T19:56:17.053Z,6.90
2022-09-29T19:58:44.149Z,6.80
2022-09-29T20:01:12.768Z,6.80
2022-09-29T20:03:39.756Z,6.80
2022-09-29T20:06:07.068Z,6.80
2022-09-29T20:08:34.745Z,6.90
2022-09-29T20:11:11.548Z,6.90
2022-09-29T20:13:39.008Z,6.90
2022-09-29T20:16:07.421Z,7.00
2022-09-29T20:18:37.621Z,7.00
2022-09-29T20:21:12.736Z,7.00
2022-09-29T20:23:40.063Z,7.00
2022-09-29T20:26:10.953Z,6.90
2022-09-29T20:28:40.037Z,6.90
2022-09-29T20:31:08.015Z,6.90
2022-09-29T20:33:36.701Z,6.80
2022-09-29T20:36:05.220Z,6.70
2022-09-29T20:38:39.411Z,6.60
2022-09-29T20:41:07.514Z,6.60
2022-09-29T20:43:34.692Z,6.60
2022-09-29T20:46:08.400Z,6.60
2022-09-29T20:48:39.098Z,6.60
2022-09-29T20:51:16.945Z,6.50
2022-09-29T20:53:55.489Z,6.50
2022-09-29T20:56:31.030Z,6.40
2022-09-29T20:59:00.053Z,6.30
2022-09-29T21:01:31.713Z,6.30
2022-09-29T21:04:12.313Z,6.30
2022-09-29T21:06:45.929Z,6.30
2022-09-29T21:09:18.801Z,6.40
2022-09-29T21:11:47.014Z,6.50
2022-09-29T21:14:18.729Z,6.50
2022-09-29T21:16:51.269Z,6.40
2022-09-29T21:19:23.835Z,6.40
2022-09-29T21:21:50.737Z,6.40
2022-09-29T21:24:17.643Z,6.40
2022-09-29T21:26:44.495Z,6.30
2022-09-29T21:29:18.506Z,6.30
2022-09-29T21:31:46.214Z,6.20
2022-09-29T21:34:15.353Z,6.10
2022-09-29T21:36:42.702Z,6.00
2022-09-29T21:39:10.746Z,6.00
2022-09-29T21:41:41.926Z,6.00
2022-09-29T21:44:23.171Z,6.10
2022-09-29T21:46:50.998Z,6.00
2022-09-29T21:49:19.330Z,6.00
2022-09-29T21:51:50.252Z,6.00
2022-09-29T21:54:25.171Z,6.00
2022-09-29T21:56:53.202Z,5.90
2022-09-29T21:59:22.808Z,5.90
2022-09-29T22:01:51.764Z,5.90
2022-09-29T22:04:20.159Z,5.90
2022-09-29T22:06:47.063Z,5.90
2022-09-29T22:09:21.214Z,5.90
2022-09-29T22:11:49.752Z,5.90
2022-09-29T22:14:17.051Z,6.00
2022-09-29T22:16:44.545Z,6.10
2022-09-29T22:19:29.206Z,6.00
2022-09-29T22:21:56.859Z,5.90
2022-09-29T22:24:26.342Z,5.80
2022-09-29T22:26:54.279Z,5.90
2022-09-29T22:29:21.252Z,5.80
2022-09-29T22:31:48.339Z,5.80
2022-09-29T22:34:15.335Z,5.70
2022-09-29T22:36:42.188Z,5.80
2022-09-29T22:39:10.652Z,5.80
2022-09-29T22:41:39.540Z,5.70
2022-09-29T22:44:07.651Z,5.70
2022-09-29T22:46:34.877Z,5.60
2022-09-29T22:49:02.004Z,5.60
2022-09-29T22:51:29.037Z,5.60
2022-09-29T22:53:55.914Z,5.60
2022-09-29T22:56:28.313Z,5.60
2022-09-29T22:59:04.450Z,5.60
2022-09-29T23:01:35.956Z,5.50
2022-09-29T23:04:03.971Z,5.50
2022-09-29T23:06:32.163Z,5.60
2022-09-29T23:08:59.108Z,5.50
2022-09-29T23:11:26.356Z,5.50
2022-09-29T23:13:53.469Z,5.50
2022-09-29T23:16:21.130Z,5.50
2022-09-29T23:18:55.273Z,5.50
2022-09-29T23:21:24.050Z,5.50
2022-09-29T23:24:01.359Z,5.60
2022-09-29T23:26:30.786Z,5.60
2022-09-29T23:28:58.618Z,5.60
2022-09-29T23:31:27.260Z,5.60
2022-09-29T23:33:59.068Z,5.50
2022-09-29T23:36:29.492Z,5.50
2022-09-29T23:39:13.631Z,5.50
2022-09-29T23:41:52.964Z,5.40
2022-09-29T23:44:28.541Z,5.40
2022-09-29T23:46:57.254Z,5.40
2022-09-29T23:49:28.797Z,5.40
2022-09-29T23:52:01.131Z,5.40
2022-09-29T23:54:29.540Z,5.50
2022-09-29T23:56:57.953Z,5.50
2022-09-29T23:59:25.678Z,5.50
